createdAt,value
2022-10-25T00:00:58.800Z,5.43
2022-10-25T00:29:19.689Z,6.47
2022-10-25T00:38:10.761Z,6.00
2022-10-25T00:40:43.595Z,5.95
2022-10-25T00:43:10.930Z,6.30
2022-10-25T00:45:38.202Z,6.00
2022-10-25T00:48:09.737Z,6.10
2022-10-25T00:52:02.910Z,4.78
2022-10-25T00:54:34.696Z,5.28
2022-10-25T01:01:07.345Z,5.63
2022-10-25T01:21:39.114Z,7.07
2022-10-25T01:24:34.581Z,6.55
2022-10-25T01:31:20.075Z,6.53
2022-10-25T01:38:40.139Z,7.57
2022-10-25T01:41:32.506Z,7.38
2022-10-25T01:44:20.138Z,6.50
2022-10-25T01:46:56.226Z,6.63
2022-10-25T01:50:27.278Z,6.47
2022-10-25T01:55:52.099Z,6.53
2022-10-25T01:58:31.538Z,6.53
2022-10-25T02:01:50.001Z,7.05
2022-10-25T02:04:33.129Z,6.60
2022-10-25T02:08:06.874Z,6.53
2022-10-25T02:10:41.927Z,7.03
2022-10-25T02:18:27.235Z,6.70
2022-10-25T02:20:56.940Z,6.57
2022-10-25T02:23:26.043Z,7.65
2022-10-25T02:25:55.020Z,7.43
2022-10-25T02:33:02.029Z,6.55
2022-10-25T02:35:29.420Z,6.47
2022-10-25T02:37:57.984Z,5.93
2022-10-25T02:41:15.920Z,7.03
2022-10-25T02:43:43.157Z,8.13
2022-10-25T02:47:08.179Z,7.68
2022-10-25T02:49:35.352Z,7.97
2022-10-25T02:52:02.468Z,7.80
2022-10-25T02:55:01.110Z,6.90
2022-10-25T02:57:33.897Z,6.95
2022-10-25T03:00:01.243Z,7.25
2022-10-25T03:02:28.369Z,7.88
2022-10-25T03:04:55.663Z,9.35
2022-10-25T03:07:34.586Z,7.35
2022-10-25T03:10:01.763Z,6.35
2022-10-25T03:12:28.908Z,5.75
2022-10-25T03:15:32.161Z,5.93
2022-10-25T03:17:59.378Z,6.65
2022-10-25T03:20:26.536Z,5.50
2022-10-25T03:27:17.930Z,4.78
2022-10-25T03:29:45.163Z,6.05
2022-10-25T03:32:12.277Z,6.72
2022-10-25T03:35:12.082Z,6.05
2022-10-25T03:37:39.205Z,5.30
2022-10-25T03:40:06.879Z,5.88
2022-10-25T03:42:59.161Z,5.53
2022-10-25T03:45:26.875Z,5.40
2022-10-25T03:47:54.011Z,6.47
2022-10-25T03:50:21.218Z,6.15
2022-10-25T03:52:48.287Z,5.72
2022-10-25T03:55:35.024Z,5.80
2022-10-25T03:58:02.674Z,6.22
2022-10-25T04:00:30.329Z,6.55
2022-10-25T04:03:28.082Z,5.90
2022-10-25T04:05:55.190Z,6.32
2022-10-25T04:08:23.331Z,7.13
2022-10-25T04:11:41.898Z,5.70
2022-10-25T04:14:09.060Z,6.85
2022-10-25T04:16:36.213Z,5.78
2022-10-25T04:19:59.923Z,7.63
2022-10-25T04:22:27.184Z,6.63
2022-10-25T04:24:54.278Z,6.95
2022-10-25T04:28:37.845Z,7.22
2022-10-25T04:31:05.134Z,6.45
2022-10-25T04:33:32.264Z,6.70
2022-10-25T04:40:54.874Z,7.10
2022-10-25T04:43:22.118Z,7.00
2022-10-25T04:45:49.283Z,6.60
2022-10-25T04:53:17.914Z,6.95
2022-10-25T04:55:45.321Z,9.52
2022-10-25T04:58:12.428Z,7.47
2022-10-25T05:00:39.619Z,7.35
2022-10-25T05:03:10.847Z,8.48
2022-10-25T05:05:40.435Z,8.35
2022-10-25T05:08:07.525Z,7.57
2022-10-25T05:10:34.704Z,7.93
2022-10-25T05:13:06.495Z,7.65
2022-10-25T05:15:33.666Z,7.65
2022-10-25T05:18:00.976Z,7.68
2022-10-25T05:20:30.468Z,9.15
2022-10-25T05:22:57.586Z,8.15
2022-10-25T05:25:25.347Z,8.80
2022-10-25T05:32:15.406Z,9.32
2022-10-25T05:34:42.518Z,9.88
2022-10-25T05:37:09.709Z,8.32
2022-10-25T05:39:42.371Z,9.18
2022-10-25T05:42:09.495Z,7.93
2022-10-25T05:44:36.720Z,9.10
2022-10-25T05:47:29.242Z,9.45
2022-10-25T05:49:56.507Z,9.98
2022-10-25T05:52:24.374Z,10.05
2022-10-25T05:55:37.893Z,10.00
2022-10-25T05:58:05.026Z,9.25
2022-10-25T06:00:32.334Z,11.23
2022-10-25T06:03:01.877Z,9.45
2022-10-25T06:08:36.616Z,8.73
2022-10-25T06:11:10.125Z,9.75
2022-10-25T06:31:53.296Z,8.35
2022-10-25T06:34:21.959Z,7.60
2022-10-25T06:36:49.199Z,9.18
2022-10-25T06:48:36.458Z,9.70
2022-10-25T06:51:11.477Z,9.38
2022-10-25T06:54:08.779Z,10.65
2022-10-25T06:56:36.539Z,8.65
2022-10-25T07:02:24.360Z,9.50
2022-10-25T07:06:08.674Z,9.30
2022-10-25T07:08:39.144Z,8.10
2022-10-25T07:11:06.977Z,8.88
2022-10-25T07:26:34.766Z,7.00
2022-10-25T07:37:27.785Z,6.63
2022-10-25T07:39:54.917Z,6.93
2022-10-25T07:42:22.036Z,7.22
2022-10-25T07:50:28.679Z,6.53
2022-10-25T07:52:57.746Z,6.10
2022-10-25T07:55:25.298Z,6.45
2022-10-25T07:58:18.664Z,5.97
2022-10-25T08:00:46.072Z,6.03
2022-10-25T08:06:24.680Z,5.88
2022-10-25T08:08:52.596Z,5.40
2022-10-25T08:12:10.814Z,5.70
2022-10-25T08:14:40.913Z,5.45
2022-10-25T08:21:03.364Z,5.03
2022-10-25T08:23:32.319Z,4.95
2022-10-25T08:26:26.483Z,5.25
2022-10-25T08:28:53.621Z,5.17
2022-10-25T08:31:20.934Z,5.25
2022-10-25T08:43:40.787Z,4.18
2022-10-25T08:46:16.513Z,4.65
2022-10-25T08:48:49.238Z,4.57
2022-10-25T08:51:30.901Z,4.22
2022-10-25T08:54:03.134Z,4.47
2022-10-25T08:56:32.159Z,4.13
2022-10-25T09:03:03.497Z,4.32
2022-10-25T09:06:02.987Z,3.83
2022-10-25T09:09:17.869Z,4.15
2022-10-25T09:12:36.570Z,4.20
2022-10-25T09:16:02.131Z,3.92
2022-10-25T09:18:43.170Z,4.13
2022-10-25T09:21:22.635Z,3.83
2022-10-25T09:24:41.707Z,3.72
2022-10-25T09:27:11.770Z,3.45
2022-10-25T09:30:09.503Z,3.80
2022-10-25T09:32:46.173Z,3.03
2022-10-25T09:35:24.594Z,3.03
2022-10-25T09:38:11.108Z,2.72
2022-10-25T09:41:50.139Z,3.15
2022-10-25T09:44:46.434Z,3.40
2022-10-25T09:52:18.334Z,2.55
2022-10-25T09:55:05.556Z,2.70
2022-10-25T09:58:01.743Z,2.70
2022-10-25T10:00:29.269Z,2.65
2022-10-25T10:02:56.770Z,2.40
2022-10-25T10:05:36.038Z,2.40
2022-10-25T10:08:03.165Z,2.80
2022-10-25T10:10:49.935Z,2.80
2022-10-25T10:13:41.748Z,2.90
2022-10-25T10:20:57.383Z,2.20
2022-10-25T10:23:25.926Z,2.53
2022-10-25T10:25:53.407Z,2.33
2022-10-25T10:28:20.991Z,2.90
2022-10-25T10:31:53.593Z,2.20
2022-10-25T10:34:31.004Z,2.72
2022-10-25T10:37:30.734Z,2.90
2022-10-25T10:39:59.411Z,2.60
2022-10-25T10:43:43.372Z,2.47
2022-10-25T10:46:15.258Z,2.72
2022-10-25T10:48:45.551Z,2.30
2022-10-25T10:54:23.597Z,2.22
2022-10-25T10:56:58.277Z,2.38
2022-10-25T11:03:40.367Z,2.50
2022-10-25T11:11:49.979Z,2.33
2022-10-25T11:14:20.159Z,2.40
2022-10-25T11:16:54.522Z,2.90
2022-10-25T11:19:30.581Z,2.72
2022-10-25T11:22:43.420Z,2.40
2022-10-25T11:25:13.683Z,2.15
2022-10-25T11:32:50.465Z,2.22
2022-10-25T11:35:56.468Z,2.53
2022-10-25T11:39:03.326Z,2.15
2022-10-25T11:41:45.480Z,2.25
2022-10-25T11:44:48.009Z,1.75
2022-10-25T11:47:43.476Z,1.80
2022-10-25T11:50:56.642Z,2.05
2022-10-25T11:53:39.589Z,1.95
2022-10-25T11:56:16.224Z,2.28
2022-10-25T11:59:03.450Z,2.00
2022-10-25T12:07:20.518Z,2.17
2022-10-25T12:10:21.488Z,2.40
2022-10-25T12:20:07.559Z,2.20
2022-10-25T12:22:39.715Z,2.00
2022-10-25T12:25:23.118Z,2.17
2022-10-25T12:28:00.907Z,2.08
2022-10-25T12:30:30.577Z,2.40
2022-10-25T12:33:30.664Z,2.30
2022-10-25T12:36:01.933Z,2.20
2022-10-25T12:38:50.718Z,2.67
2022-10-25T12:41:28.143Z,3.20
2022-10-25T12:44:34.287Z,2.40
2022-10-25T12:47:46.376Z,2.28
2022-10-25T12:50:45.187Z,2.10
2022-10-25T12:53:33.341Z,2.00
2022-10-25T12:56:39.582Z,2.42
2022-10-25T12:59:12.753Z,2.20
2022-10-25T13:18:47.396Z,2.33
2022-10-25T13:21:39.577Z,2.47
2022-10-25T13:24:10.835Z,2.17
2022-10-25T13:27:19.062Z,2.05
2022-10-25T13:29:46.155Z,2.63
2022-10-25T13:32:21.834Z,2.22
2022-10-25T13:34:49.169Z,1.95
2022-10-25T13:37:33.962Z,2.42
2022-10-25T13:40:31.170Z,2.55
2022-10-25T13:44:09.556Z,2.75
2022-10-25T13:46:42.772Z,2.50
2022-10-25T13:53:45.118Z,2.60
2022-10-25T13:56:17.369Z,3.25
2022-10-25T13:59:42.155Z,2.40
2022-10-25T14:02:21.015Z,2.90
2022-10-25T14:09:34.103Z,3.95
2022-10-25T14:12:01.161Z,2.47
2022-10-25T14:15:02.125Z,3.00
2022-10-25T14:17:43.809Z,3.70
2022-10-25T14:21:22.479Z,2.55
2022-10-25T14:23:51.095Z,2.50
2022-10-25T14:26:20.033Z,2.75
2022-10-25T14:29:57.829Z,2.30
2022-10-25T14:32:25.028Z,2.60
2022-10-25T14:34:53.820Z,2.72
2022-10-25T14:38:34.800Z,2.92
2022-10-25T14:41:04.932Z,3.08
2022-10-25T14:44:14.471Z,3.83
2022-10-25T14:46:44.596Z,3.80
2022-10-25T14:49:20.560Z,2.90
2022-10-25T14:51:50.513Z,2.90
2022-10-25T14:54:34.066Z,3.58
2022-10-25T14:57:04.497Z,3.80
2022-10-25T14:59:46.683Z,3.38
2022-10-25T15:02:16.839Z,3.17
2022-10-25T15:04:53.392Z,2.83
2022-10-25T15:07:42.801Z,2.92
2022-10-25T15:10:41.009Z,3.05
2022-10-25T15:13:34.722Z,3.78
2022-10-25T15:16:03.147Z,3.45
2022-10-25T15:18:38.606Z,3.17
2022-10-25T15:29:42.909Z,3.60
2022-10-25T15:33:02.564Z,3.17
2022-10-25T15:35:31.369Z,3.30
2022-10-25T15:37:58.589Z,3.45
2022-10-25T15:41:35.779Z,3.75
2022-10-25T15:44:02.834Z,3.40
